الصفحة الرئيسية
METAR-TAF:

METAR-TAF

مطار :

مطار بالما دي مايوركا

بالما دي مايوركا, إسبانيا

دائرة عرض: 39-33N, خط طول: 002-44E, ارتفاع: 4 متر

مراقبة الطقس الحالي

تاريخ ووقت الإصدار 41 دقيقة قبل الساعة 22:00UTC
ريح 2 عقدةمن اتجاهات متغيرة
درجة الحرارة 22°درجة مئوية
الرطوبة 94%
ضغط 1022 hPa
الرؤية 10 كم أو أكثر
غيوم قليلة على ارتفاع 2000 قدم

METAR: LEPA 222200Z VRB02KT 9999 FEW020 22/21 Q1022 NOSIG

زمن: 00:41 (22:41 UTC)

توقعات

تاريخ ووقت الإصدار 5ساعات و 41 دقيقة قبل الساعة 17:00UTC
التوقعات صالحة من22 الساعة 18 UTC إلى 23 الساعة 18 UTC
ريح 7 عقدة من الجنوب الغربي
الرؤية 10 كم أو أكثر
غيوم قليلة على ارتفاع 2000 قدم
أصبح
من 22 الساعة 18 UTC إلى 22 الساعة 20 UTC
ريح 3 عقدةمن اتجاهات متغيرة
نظرية الاحتمالات 30% :
مؤقت
من 23 الساعة 00 UTC إلى 23 الساعة 06 UTC
الرؤية: 4000 متر
غشاء
أصبح
من 23 الساعة 10 UTC إلى 23 الساعة 12 UTC
ريح 10 عقدة من الجنوب الغربي

TAF: LEPA 221700Z 2218/2318 22007KT 9999 FEW020 TX30/2312Z TN20/2306Z BECMG 2218/2220 VRB03KT PROB30 TEMPO 2300/2306 4000 BR BECMG 2310/2312 22010KT

أرصاد الطقس والتوقعات من أكثر من 4000 مطار (تقارير الطقس للمطار METAR والتنبؤ بالطقس بالمطارTAF).

المحطات المتاحة هي النقط الصفراء والحمراء على الخريطة.

حرك المؤشر فوق النقطة لمعرفة اسم المحطة.

ثم انقر لمعرفة أرصاد وتوقعات الطقس.

لتغيير الخارطة: اضغط على الأزرار الخضراء مع رمز الصليب الأسود للتكبير. على الزر الأخضر مع شرطة للتصغير، أو على الأسهم الخضراء للخرائط المجاورة.


METAR-TAF: